Flight Track Log - Related Links

Times and Time Zones

All times are in EDT time to prevent confusion due to time zone crossing. See the SWA2432 flight status page for this flight to view local times or setup timezone preferences in your user account.

Time Position Orientation Groundspeed Altitude Reporting Facility
EDT Latitude Longitude Course Direction KTS MPH feet Rate Location/Type
Thu 04:57:59 PM 36.0772 -115.1039 91° East 180 207 3,200  Level Los Angeles Center
Thu 04:59:15 PM 36.0758 -115.0167 91° East 213 245 5,500 1,913 Climbing Los Angeles Center
Thu 05:00:17 PM 36.0492 -114.9386 113° Southeast 255 293 7,600 2,496 Climbing Los Angeles Center
Thu 05:01:20 PM 35.9883 -114.9878 213° Southwest 284 327 10,700 2,688 Climbing Los Angeles Center
Thu 05:02:22 PM 35.9783 -115.1192 265° West 305 351 13,200 2,419 Climbing Los Angeles Center
Thu 05:03:24 PM 35.9647 -115.2428 262° West 332 382 15,700 2,516 Climbing Los Angeles Center
Thu 05:04:26 PM 35.9531 -115.3750 264° West 359 413 18,400 2,419 Climbing Los Angeles Center
Thu 05:05:28 PM 35.9394 -115.5142 263° West 395 455 20,700 2,371 Climbing Los Angeles Center
Thu 05:06:30 PM 35.9239 -115.6667 263° West 411 473 23,300 2,177 Climbing Los Angeles Center
Thu 05:07:32 PM 35.9125 -115.8003 264° West 420 483 25,200 1,935 Climbing Los Angeles Center
Thu 05:08:34 PM 35.9125 -115.9697 270° West 444 511 27,300 2,064 Climbing Los Angeles Center
Thu 05:09:37 PM 35.9947 -116.0825 312° West 454 522 29,500 2,016 Climbing Los Angeles Center
Thu 05:10:39 PM 36.0836 -116.1864 317° Northwest 451 519 31,500 1,103 Climbing Los Angeles Center
Thu 05:11:53 PM 36.1789 -116.2947 317° Northwest 455 524 32,000 221 Climbing Los Angeles Center
Thu 05:12:55 PM 36.2936 -116.4289 317° Northwest 471 542 32,000  Level Los Angeles Center
Thu 05:13:58 PM 36.4083 -116.5614 317° Northwest 471 542 32,000  Level Los Angeles Center
Thu 05:15:00 PM 36.5028 -116.6708 317° Northwest 468 539 32,000  Level Los Angeles Center
Thu 05:16:02 PM 36.6003 -116.7792 318° Northwest 468 539 32,000  Level Los Angeles Center
Thu 05:17:04 PM 36.7136 -116.8619 330° Northwest 471 542 32,000  Level Los Angeles Center
Thu 05:18:06 PM 36.8269 -116.9461 329° Northwest 472 543 32,000  Level Los Angeles Center
Thu 05:19:21 PM 36.9831 -117.0686 328° Northwest 473 544 32,000  Level Los Angeles Center
Thu 05:20:11 PM 37.0739 -117.1386 328° Northwest 475 547 32,000  Level Oakland Center
Thu 05:21:13 PM 37.1869 -117.2250 329° Northwest 475 547 32,000  Level Oakland Center
Thu 05:22:14 PM 37.2931 -117.3214 324° Northwest 476 548 32,000  Level Oakland Center
Thu 05:23:16 PM 37.3297 -117.4725 287° West 463 533 32,000  Level Oakland Center
Thu 05:24:18 PM 37.3578 -117.6289 283° West 456 525 32,000  Level Oakland Center
Thu 05:25:19 PM 37.3864 -117.7831 283° West 453 521 32,000  Level Oakland Center
Thu 05:26:21 PM 37.4142 -117.9392 283° West 455 524 32,000  Level Oakland Center
Thu 05:27:23 PM 37.4417 -118.0939 283° West 453 521 32,000  Level Oakland Center
Thu 05:28:24 PM 37.4753 -118.2817 283° West 455 524 32,000  Level Oakland Center
Thu 05:29:26 PM 37.5022 -118.4383 282° West 455 524 32,000  Level Oakland Center
Thu 05:30:28 PM 37.5292 -118.5939 282° West 455 524 32,000  Level Oakland Center
Thu 05:31:29 PM 37.5564 -118.7517 282° West 460 529 32,000 -49 Level Oakland Center
Thu 05:32:31 PM 37.5825 -118.9144 281° West 453 521 31,900  Descending Oakland Center
Thu 05:33:33 PM 37.6111 -119.0825 282° West 460 529 32,000 49 Climbing Oakland Center
Thu 05:34:34 PM 37.6375 -119.2400 282° West 460 529 32,000  Level Oakland Center
Thu 05:35:36 PM 37.6636 -119.3983 282° West 460 529 32,000  Level Oakland Center
Thu 05:36:38 PM 37.6883 -119.5550 281° West 457 526 32,000  Level Oakland Center
Thu 05:37:39 PM 37.7147 -119.7100 282° West 454 522 32,000  Level Oakland Center
Thu 05:38:41 PM 37.7400 -119.8681 281° West 458 527 32,000  Level Oakland Center
Thu 05:39:43 PM 37.7642 -120.0242 281° West 455 524 32,000  Level Oakland Center
Thu 05:40:44 PM 37.7892 -120.1775 282° West 448 516 32,000 -683 Level Oakland Center
Thu 05:41:46 PM 37.8178 -120.3639 281° West 451 519 30,600 -1,548 Descending Oakland Center
Thu 05:42:48 PM 37.8425 -120.5175 282° West 448 516 28,800 -2,444 Descending Oakland Center
Thu 05:43:34 PM 37.8667 -120.6500 283° West 452 520 26,200 -3,226 Descending Northern Cal TRACON
Thu 05:44:34 PM 37.8500 -120.8000 262° West 446 513 23,100 -3,300 Descending Northern Cal TRACON
Thu 05:45:34 PM 37.8500 -120.9500 270° West 428 493 19,600 -3,750 Descending Northern Cal TRACON
Thu 05:46:34 PM 37.8333 -121.1000 262° West 409 471 15,600 -3,400 Descending Northern Cal TRACON
Thu 05:47:34 PM 37.8167 -121.2333 261° West 449 517 12,800 -2,100 Descending Northern Cal TRACON
Thu 05:48:34 PM 37.7667 -121.3500 242° Southwest 374 430 11,400 -1,140 Descending Northern Cal TRACON
Thu 05:49:35 PM 37.7333 -121.4667 250° West 361 415 10,500 -700 Descending Northern Cal TRACON
Thu 05:50:34 PM 37.6833 -121.5833 242° Southwest 327 376 10,000 -1,200 Descending Northern Cal TRACON
Thu 05:51:35 PM 37.6500 -121.6833 247° West 301 346 8,100 -1,450 Descending Northern Cal TRACON
Thu 05:52:34 PM 37.6333 -121.7667 256° West 283 326 7,100 -1,250 Descending Northern Cal TRACON
Thu 05:53:35 PM 37.6333 -121.8667 270° West 280 322 5,600 -1,488 Descending Northern Cal TRACON
Thu 05:54:35 PM 37.6333 -121.9667 270° West 276 318 4,100 -950 Descending Northern Cal TRACON
Thu 05:55:35 PM 37.6167 -122.0500 256° West 231 266 3,700 -850 Descending Northern Cal TRACON
Thu 05:56:35 PM 37.6333 -122.1167 288° West 182 209 2,400 -1,250 Descending Northern Cal TRACON
Thu 05:57:35 PM 37.6667 -122.1500 322° Northwest 148 170 1,200 -900 Descending Northern Cal TRACON
Thu 05:58:35 PM 37.6833 -122.1833 302° West 128 147 600 -600 Descending Northern Cal TRACON
Thu 06:01:00 PM 37.7167 -122.2167 270° West  Level FlightAware Approximate
Thu 06:08:00 PM 37.7213 -122.2207 270° West  Level Estimated

Login

Don't have an account? Register now (free) for customized features, flight alerts, and more!